createdAt,value
2023-04-25T00:00:58.572Z,47.90
2023-04-25T00:06:20.590Z,64.20
2023-04-25T00:08:49.026Z,67.10
2023-04-25T00:11:16.915Z,73.70
2023-04-25T00:13:43.555Z,81.20
2023-04-25T00:16:10.224Z,83.80
2023-04-25T00:18:43.740Z,84.20
2023-04-25T00:21:10.734Z,88.70
2023-04-25T00:23:42.315Z,90.80
2023-04-25T00:26:11.252Z,93.70
2023-04-25T00:28:41.608Z,95.70
2023-04-25T00:31:08.327Z,95.50
2023-04-25T00:33:41.229Z,97.90
2023-04-25T00:36:08.606Z,99.90
2023-04-25T00:38:35.527Z,99.90
2023-04-25T00:46:51.880Z,99.90
2023-04-25T00:49:23.063Z,99.90
2023-04-25T00:51:55.223Z,99.90
2023-04-25T00:57:13.605Z,99.90
2023-04-25T00:59:47.218Z,99.90
2023-04-25T01:02:14.322Z,99.90
2023-04-25T01:04:41.298Z,99.90
2023-04-25T01:07:08.059Z,99.90
2023-04-25T01:09:34.899Z,99.90
2023-04-25T01:12:02.080Z,99.90
2023-04-25T01:14:28.765Z,99.90
2023-04-25T01:16:55.744Z,99.90
2023-04-25T01:19:22.604Z,99.90
2023-04-25T01:21:49.334Z,99.90
2023-04-25T01:24:16.426Z,99.90
2023-04-25T01:26:50.510Z,99.90
2023-04-25T01:29:18.746Z,99.90
2023-04-25T01:31:45.917Z,99.90
2023-04-25T01:34:13.669Z,99.90
2023-04-25T01:36:40.987Z,99.90
2023-04-25T01:39:08.434Z,99.90
2023-04-25T01:41:38.309Z,99.90
2023-04-25T01:44:05.279Z,99.90
2023-04-25T01:46:32.433Z,99.90
2023-04-25T01:48:59.235Z,99.90
2023-04-25T01:51:26.172Z,99.90
2023-04-25T01:53:53.471Z,99.90
2023-04-25T01:56:20.341Z,99.90
2023-04-25T01:58:47.135Z,99.90
2023-04-25T02:01:14.007Z,99.90
2023-04-25T02:03:40.950Z,99.90
2023-04-25T02:06:08.178Z,99.90
2023-04-25T02:08:38.138Z,99.90
2023-04-25T02:11:04.980Z,99.90
2023-04-25T02:13:31.648Z,99.90
2023-04-25T02:16:01.261Z,99.90
2023-04-25T02:18:27.944Z,99.90
2023-04-25T02:20:54.977Z,99.90
2023-04-25T02:23:21.713Z,99.90
2023-04-25T02:25:49.281Z,99.90
2023-04-25T02:28:15.940Z,99.90
2023-04-25T02:30:42.593Z,99.90
2023-04-25T02:33:09.286Z,99.90
2023-04-25T02:35:36.250Z,99.90
2023-04-25T02:38:03.061Z,99.90
2023-04-25T02:40:29.675Z,99.90
2023-04-25T02:42:56.342Z,99.90
2023-04-25T02:45:23.002Z,99.90
2023-04-25T02:47:49.698Z,99.90
2023-04-25T02:50:16.408Z,99.90
2023-04-25T02:52:43.038Z,99.90
2023-04-25T02:55:09.966Z,99.90
2023-04-25T02:57:36.643Z,99.90
2023-04-25T03:00:08.131Z,99.90
2023-04-25T03:02:38.300Z,99.90
2023-04-25T03:05:05.632Z,99.90
2023-04-25T03:07:32.384Z,99.90
2023-04-25T03:09:59.140Z,99.90
2023-04-25T03:12:25.850Z,99.90
2023-04-25T03:14:52.477Z,99.90
2023-04-25T03:17:19.406Z,99.90
2023-04-25T03:19:46.841Z,99.90
2023-04-25T03:22:13.511Z,99.90
2023-04-25T03:24:40.238Z,99.90
2023-04-25T03:27:07.104Z,99.90
2023-04-25T03:29:35.361Z,99.90
2023-04-25T03:32:02.069Z,99.90
2023-04-25T03:34:29.101Z,99.90
2023-04-25T03:36:56.139Z,99.90
2023-04-25T03:39:22.907Z,99.90
2023-04-25T03:41:49.582Z,99.90
2023-04-25T03:44:16.258Z,99.90
2023-04-25T03:46:42.919Z,99.90
2023-04-25T03:49:10.100Z,99.90
2023-04-25T03:51:37.102Z,99.90
2023-04-25T03:54:03.911Z,99.90
2023-04-25T03:56:33.978Z,99.90
2023-04-25T03:59:02.693Z,99.90
2023-04-25T04:01:29.691Z,99.90
2023-04-25T04:03:56.829Z,99.90
2023-04-25T04:06:23.837Z,99.90
2023-04-25T04:08:50.587Z,99.90
2023-04-25T04:11:17.235Z,99.90
2023-04-25T04:13:46.760Z,99.90
2023-04-25T04:16:13.569Z,99.90
2023-04-25T04:18:40.275Z,99.90
2023-04-25T04:21:07.043Z,99.90
2023-04-25T04:23:34.575Z,99.90
2023-04-25T04:26:01.971Z,99.90
2023-04-25T04:28:29.054Z,99.90
2023-04-25T04:30:56.489Z,99.90
2023-04-25T04:33:24.494Z,99.90
2023-04-25T04:35:53.242Z,99.90
2023-04-25T04:38:20.688Z,99.90
2023-04-25T04:40:48.662Z,99.90
2023-04-25T04:43:18.035Z,99.90
2023-04-25T04:45:46.289Z,99.90
2023-04-25T04:48:15.002Z,1.00
2023-04-25T04:50:43.647Z,99.90
2023-04-25T04:53:10.559Z,99.90
2023-04-25T04:55:37.249Z,99.90
2023-04-25T04:58:03.912Z,99.90
2023-04-25T05:00:31.199Z,99.90
2023-04-25T05:02:57.999Z,1.00
2023-04-25T05:05:24.894Z,99.90
2023-04-25T05:07:51.814Z,99.90
2023-04-25T05:10:20.171Z,99.90
2023-04-25T05:12:47.046Z,99.90
2023-04-25T05:15:15.829Z,99.90
2023-04-25T05:17:42.603Z,99.90
2023-04-25T05:20:12.482Z,99.90
2023-04-25T05:22:39.113Z,99.90
2023-04-25T05:25:06.462Z,99.90
2023-04-25T05:27:34.282Z,99.90
2023-04-25T05:30:00.998Z,99.90
2023-04-25T05:32:28.302Z,99.90
2023-04-25T05:34:55.133Z,99.90
2023-04-25T05:37:21.811Z,99.90
2023-04-25T05:39:48.709Z,99.90
2023-04-25T05:42:15.464Z,99.90
2023-04-25T05:44:42.227Z,99.90
2023-04-25T05:47:08.923Z,99.90
2023-04-25T05:49:36.001Z,99.90
2023-04-25T05:52:05.504Z,99.90
2023-04-25T05:54:32.392Z,99.90
2023-04-25T05:56:59.652Z,99.90
2023-04-25T05:59:27.028Z,99.90
2023-04-25T06:01:56.508Z,99.90
2023-04-25T06:04:26.789Z,99.90
2023-04-25T06:06:53.638Z,99.90
2023-04-25T06:09:23.711Z,99.90
2023-04-25T06:11:52.816Z,99.90
2023-04-25T06:14:19.689Z,99.90
2023-04-25T06:16:46.316Z,99.90
2023-04-25T06:19:12.942Z,99.90
2023-04-25T06:21:39.582Z,99.90
2023-04-25T06:24:06.461Z,99.90
2023-04-25T06:26:33.076Z,99.90
2023-04-25T06:28:59.711Z,99.90
2023-04-25T06:31:26.995Z,99.90
2023-04-25T06:33:55.750Z,99.90
2023-04-25T06:36:29.599Z,99.90
2023-04-25T06:38:56.268Z,99.90
2023-04-25T06:41:25.870Z,99.90
2023-04-25T06:43:52.527Z,99.90
2023-04-25T06:46:19.903Z,99.90
2023-04-25T06:48:49.971Z,99.90
2023-04-25T06:51:16.916Z,99.90
2023-04-25T06:53:43.629Z,99.90
2023-04-25T06:56:11.047Z,99.90
2023-04-25T06:58:38.960Z,99.90
2023-04-25T07:01:05.833Z,99.90
2023-04-25T07:03:32.698Z,99.90
2023-04-25T07:05:59.669Z,99.90
2023-04-25T07:08:26.352Z,99.90
2023-04-25T07:10:53.036Z,99.90
2023-04-25T07:13:19.839Z,99.90
2023-04-25T07:15:46.549Z,99.90
2023-04-25T07:18:13.267Z,99.90
2023-04-25T07:20:40.056Z,99.90
2023-04-25T07:23:06.682Z,99.90
2023-04-25T07:25:33.433Z,99.90
2023-04-25T07:28:00.305Z,99.90
2023-04-25T07:30:27.113Z,99.90
2023-04-25T07:32:55.196Z,99.90
2023-04-25T07:35:21.889Z,99.90
2023-04-25T07:37:48.961Z,99.90
2023-04-25T07:40:18.592Z,99.90
2023-04-25T07:42:45.492Z,99.90
2023-04-25T07:45:12.394Z,99.90
2023-04-25T07:47:41.597Z,99.90
2023-04-25T07:50:08.858Z,99.90
2023-04-25T07:52:35.907Z,99.90
2023-04-25T07:55:02.619Z,99.90
2023-04-25T07:57:30.726Z,99.90
2023-04-25T07:59:57.460Z,99.90
2023-04-25T08:02:24.221Z,99.90
2023-04-25T08:04:51.310Z,99.90
2023-04-25T08:07:18.085Z,99.90
2023-04-25T08:09:45.089Z,99.90
2023-04-25T08:12:12.276Z,99.90
2023-04-25T08:14:40.756Z,99.90
2023-04-25T08:17:07.521Z,99.90
2023-04-25T08:19:34.457Z,99.90
2023-04-25T08:22:01.368Z,99.90
2023-04-25T08:24:28.005Z,99.90
2023-04-25T08:26:54.941Z,99.90
2023-04-25T08:29:21.744Z,99.90
2023-04-25T08:31:49.025Z,99.90
2023-04-25T08:34:16.192Z,99.90
2023-04-25T08:36:45.682Z,99.90
2023-04-25T08:39:13.887Z,99.90
2023-04-25T08:41:45.376Z,99.90
2023-04-25T08:44:12.610Z,99.90
2023-04-25T08:46:46.747Z,99.90
2023-04-25T08:49:15.968Z,99.90
2023-04-25T08:51:51.577Z,99.90
2023-04-25T08:54:34.327Z,99.90
2023-04-25T08:57:04.801Z,99.90
2023-04-25T08:59:36.623Z,99.90
2023-04-25T09:02:09.298Z,99.90
2023-04-25T09:04:38.622Z,99.90
2023-04-25T09:07:06.008Z,99.90
2023-04-25T09:09:33.475Z,99.90
2023-04-25T09:12:02.675Z,99.90
2023-04-25T09:14:35.496Z,99.90
2023-04-25T09:17:05.800Z,99.90
2023-04-25T09:19:41.409Z,99.90
2023-04-25T09:22:11.810Z,99.90
2023-04-25T09:24:38.548Z,99.90
2023-04-25T09:27:13.856Z,99.90
2023-04-25T09:29:45.442Z,99.90
2023-04-25T09:32:13.973Z,99.90
2023-04-25T09:34:46.694Z,99.90
2023-04-25T09:37:13.359Z,99.90
2023-04-25T09:39:40.676Z,99.90
2023-04-25T09:42:07.605Z,99.10
2023-04-25T09:44:34.387Z,99.10
2023-04-25T09:47:01.358Z,99.30
2023-04-25T09:49:28.869Z,99.50
2023-04-25T09:52:02.037Z,99.80
2023-04-25T09:54:28.682Z,99.50
2023-04-25T09:56:55.489Z,99.90
2023-04-25T09:59:25.918Z,99.90
2023-04-25T10:01:55.000Z,99.90
2023-04-25T10:04:32.169Z,99.90
2023-04-25T10:07:01.270Z,99.70
2023-04-25T10:09:32.913Z,99.70
2023-04-25T10:12:02.569Z,99.90
2023-04-25T10:14:33.139Z,99.90
2023-04-25T10:17:00.703Z,99.90
2023-04-25T10:19:33.767Z,99.90
2023-04-25T10:22:38.136Z,99.90
2023-04-25T10:25:08.958Z,99.90
2023-04-25T10:27:36.741Z,99.80
2023-04-25T10:30:11.338Z,99.90
2023-04-25T10:32:38.262Z,99.90
2023-04-25T10:35:19.882Z,99.90
2023-04-25T10:38:06.318Z,99.90
2023-04-25T10:40:34.453Z,99.90
2023-04-25T10:43:51.081Z,99.90
2023-04-25T10:46:32.713Z,99.90
2023-04-25T10:49:03.384Z,99.90
2023-04-25T10:51:51.442Z,99.90
2023-04-25T10:54:26.470Z,99.90
2023-04-25T10:56:54.180Z,99.90
2023-04-25T10:59:22.512Z,99.10
2023-04-25T11:01:53.421Z,98.80
2023-04-25T11:04:22.566Z,97.50
2023-04-25T11:07:18.381Z,98.20
2023-04-25T11:09:46.622Z,98.60
2023-04-25T11:12:14.123Z,98.60
2023-04-25T11:14:42.374Z,97.40
2023-04-25T11:17:09.944Z,97.70
2023-04-25T11:19:36.764Z,98.40
2023-04-25T11:22:04.206Z,98.60
2023-04-25T11:24:34.876Z,98.20
2023-04-25T11:27:03.391Z,98.30
2023-04-25T11:29:31.756Z,97.70
2023-04-25T11:31:59.270Z,98.30
2023-04-25T11:34:26.991Z,99.10
2023-04-25T11:36:54.497Z,97.30
2023-04-25T11:39:22.313Z,97.60
2023-04-25T11:41:49.054Z,97.60
2023-04-25T11:44:20.536Z,97.80
2023-04-25T11:46:54.557Z,97.80
2023-04-25T11:49:22.907Z,98.00
2023-04-25T11:51:51.980Z,97.90
2023-04-25T11:54:18.600Z,98.00
2023-04-25T11:56:49.595Z,98.30
2023-04-25T11:59:17.667Z,98.00
2023-04-25T12:01:53.283Z,98.10
2023-04-25T12:04:26.506Z,98.30
2023-04-25T12:06:55.465Z,98.40
2023-04-25T12:09:30.653Z,98.50
2023-04-25T12:11:59.201Z,98.50
2023-04-25T12:14:27.885Z,98.90
2023-04-25T12:16:58.881Z,99.00
2023-04-25T12:19:26.861Z,99.60
2023-04-25T12:21:58.543Z,98.80
2023-04-25T12:24:29.599Z,98.70
2023-04-25T12:27:05.556Z,98.20
2023-04-25T12:29:49.303Z,98.30
2023-04-25T12:32:17.984Z,98.70
2023-04-25T12:34:46.598Z,98.50
2023-04-25T12:37:13.520Z,98.30
2023-04-25T12:39:40.621Z,98.70
2023-04-25T12:42:10.011Z,99.00
2023-04-25T12:44:39.173Z,97.80
2023-04-25T12:47:06.717Z,97.90
2023-04-25T12:49:38.314Z,99.90
2023-04-25T12:52:04.969Z,99.90
2023-04-25T12:54:32.175Z,99.00
2023-04-25T12:56:59.277Z,98.40
2023-04-25T12:59:25.906Z,98.00
2023-04-25T13:01:53.866Z,96.90
2023-04-25T13:04:22.012Z,96.90
2023-04-25T13:06:48.942Z,96.70
2023-04-25T13:09:16.685Z,97.40
2023-04-25T13:11:47.000Z,96.50
2023-04-25T13:14:17.283Z,95.30
2023-04-25T13:16:48.827Z,94.90
2023-04-25T13:19:15.476Z,94.70
2023-04-25T13:21:42.115Z,95.10
2023-04-25T13:24:08.989Z,94.90
2023-04-25T13:26:35.788Z,95.20
2023-04-25T13:29:06.454Z,96.00
2023-04-25T13:31:36.841Z,96.50
2023-04-25T13:34:10.755Z,96.30
2023-04-25T13:36:37.880Z,96.30
2023-04-25T13:39:06.350Z,96.40
2023-04-25T13:41:33.429Z,96.40
2023-04-25T13:44:02.729Z,96.00
2023-04-25T13:46:45.594Z,95.70
2023-04-25T13:49:16.837Z,95.50
2023-04-25T13:51:43.818Z,95.70
2023-04-25T13:54:10.634Z,96.40
2023-04-25T13:56:37.346Z,95.40
2023-04-25T13:59:06.331Z,95.50
2023-04-25T14:01:38.403Z,95.60
2023-04-25T14:04:08.113Z,95.40
2023-04-25T14:06:38.731Z,95.60
2023-04-25T14:09:05.730Z,95.10
2023-04-25T14:11:35.820Z,95.40
2023-04-25T14:14:02.447Z,95.10
2023-04-25T14:16:36.529Z,95.10
2023-04-25T14:19:03.743Z,94.80
2023-04-25T14:21:36.322Z,95.00
2023-04-25T14:24:03.144Z,95.10
2023-04-25T14:26:31.888Z,95.40
2023-04-25T14:28:58.522Z,95.50
2023-04-25T14:31:26.086Z,95.30
2023-04-25T14:33:53.044Z,95.30
2023-04-25T14:36:22.169Z,95.00
2023-04-25T14:41:43.622Z,94.80
2023-04-25T14:44:10.363Z,94.90
2023-04-25T14:46:37.618Z,94.30
2023-04-25T14:49:06.998Z,94.60
2023-04-25T14:51:33.959Z,94.80
2023-04-25T14:54:03.863Z,94.50
2023-04-25T14:56:30.502Z,94.70
2023-04-25T14:59:03.197Z,94.70
2023-04-25T15:01:29.999Z,93.60
2023-04-25T15:04:03.547Z,93.20
2023-04-25T15:06:31.606Z,92.60
2023-04-25T15:09:00.920Z,92.60
2023-04-25T15:11:27.660Z,92.90
2023-04-25T15:13:54.477Z,92.90
2023-04-25T15:16:22.403Z,93.30
2023-04-25T15:18:49.102Z,93.90
2023-04-25T15:21:17.448Z,93.90
2023-04-25T15:23:44.136Z,94.30
2023-04-25T15:26:14.651Z,94.60
2023-04-25T15:28:42.230Z,95.00
2023-04-25T15:31:08.872Z,95.30
2023-04-25T15:33:35.598Z,95.30
2023-04-25T15:36:04.314Z,95.30
2023-04-25T15:38:31.156Z,94.80
2023-04-25T15:40:57.847Z,95.20
2023-04-25T15:43:25.626Z,95.40
2023-04-25T15:45:55.889Z,94.90
2023-04-25T15:48:24.065Z,94.60
2023-04-25T15:50:50.749Z,94.60
2023-04-25T15:53:17.600Z,94.10
2023-04-25T15:55:44.583Z,93.80
2023-04-25T15:58:13.689Z,94.40
2023-04-25T16:00:40.409Z,93.90
2023-04-25T16:03:11.248Z,94.00
2023-04-25T16:05:40.985Z,93.70
2023-04-25T16:11:01.200Z,92.10
2023-04-25T16:13:30.442Z,91.80
2023-04-25T16:15:57.653Z,91.70
2023-04-25T16:18:26.580Z,91.40
2023-04-25T16:20:53.694Z,92.00
2023-04-25T16:23:20.358Z,92.00
2023-04-25T16:25:47.696Z,92.70
2023-04-25T16:28:14.431Z,93.70
2023-04-25T16:30:41.470Z,93.50
2023-04-25T16:33:08.935Z,93.80
2023-04-25T16:35:37.758Z,93.70
2023-04-25T16:38:05.341Z,93.40
2023-04-25T16:40:34.259Z,93.30
2023-04-25T16:43:01.942Z,93.30
2023-04-25T16:45:28.658Z,93.10
2023-04-25T16:47:55.677Z,92.60
2023-04-25T16:50:22.494Z,92.60
2023-04-25T16:52:49.617Z,93.10
2023-04-25T16:55:16.278Z,93.10
2023-04-25T16:57:45.292Z,92.90
2023-04-25T17:00:12.910Z,93.10
2023-04-25T17:02:40.796Z,92.70
2023-04-25T17:05:07.896Z,92.50
2023-04-25T17:07:36.617Z,93.00
2023-04-25T17:10:03.772Z,92.80
2023-04-25T17:12:31.824Z,92.60
2023-04-25T17:15:00.966Z,93.00
2023-04-25T17:17:28.287Z,93.30
2023-04-25T17:19:55.537Z,93.40
2023-04-25T17:22:25.416Z,93.20
2023-04-25T17:24:53.809Z,93.30
2023-04-25T17:27:20.488Z,93.50
2023-04-25T17:32:41.065Z,93.90
2023-04-25T17:35:10.312Z,94.20
2023-04-25T17:37:38.016Z,94.20
2023-04-25T17:40:12.042Z,94.40
2023-04-25T17:42:39.794Z,94.60
2023-04-25T17:45:10.838Z,94.40
2023-04-25T17:47:37.572Z,94.40
2023-04-25T17:50:05.351Z,95.10
2023-04-25T17:52:32.343Z,95.40
2023-04-25T17:55:01.565Z,95.50
2023-04-25T17:57:29.099Z,95.60
2023-04-25T17:59:57.969Z,95.90
2023-04-25T18:02:25.537Z,95.90
2023-04-25T18:04:52.762Z,96.00
2023-04-25T18:07:22.278Z,96.10
2023-04-25T18:09:52.209Z,96.10
2023-04-25T18:12:19.034Z,96.20
2023-04-25T18:14:46.096Z,96.30
2023-04-25T18:17:19.516Z,96.70
2023-04-25T18:19:46.479Z,96.90
2023-04-25T18:22:14.807Z,97.10
2023-04-25T18:24:42.998Z,97.20
2023-04-25T18:27:16.391Z,97.20
2023-04-25T18:29:45.503Z,97.60
2023-04-25T18:32:17.331Z,97.80
2023-04-25T18:34:46.223Z,98.10
2023-04-25T18:37:16.804Z,98.30
2023-04-25T18:39:47.064Z,98.50
2023-04-25T18:42:18.560Z,99.00
2023-04-25T18:44:46.367Z,99.50
2023-04-25T18:47:13.326Z,99.90
2023-04-25T18:49:44.545Z,99.90
2023-04-25T18:52:12.774Z,99.90
2023-04-25T18:54:45.596Z,99.90
2023-04-25T18:57:14.525Z,99.90
2023-04-25T18:59:41.634Z,99.90
2023-04-25T19:02:09.290Z,99.90
2023-04-25T19:04:39.685Z,99.90
2023-04-25T19:07:06.935Z,99.90
2023-04-25T19:09:33.661Z,99.90
2023-04-25T19:12:00.571Z,99.90
2023-04-25T19:14:28.423Z,99.90
2023-04-25T19:17:03.799Z,99.90
2023-04-25T19:19:30.598Z,99.90
2023-04-25T19:21:58.577Z,99.90
2023-04-25T19:24:27.382Z,99.90
2023-04-25T19:26:58.023Z,99.90
2023-04-25T19:29:25.036Z,99.90
2023-04-25T19:31:52.808Z,99.90
2023-04-25T19:34:19.808Z,99.90
2023-04-25T19:36:46.533Z,99.90
2023-04-25T19:39:13.308Z,99.90
2023-04-25T19:41:40.191Z,99.90
2023-04-25T19:44:08.884Z,99.90
2023-04-25T19:46:36.802Z,99.90
2023-04-25T19:49:09.331Z,99.90
2023-04-25T19:51:37.025Z,99.90
2023-04-25T19:56:56.642Z,99.90
2023-04-25T19:59:24.242Z,99.90
2023-04-25T20:01:51.282Z,99.90
2023-04-25T20:04:18.446Z,99.90
2023-04-25T20:06:46.316Z,99.90
2023-04-25T20:09:13.043Z,99.90
2023-04-25T20:11:42.431Z,99.90
2023-04-25T20:14:09.130Z,99.90
2023-04-25T20:16:36.701Z,99.90
2023-04-25T20:19:05.620Z,99.90
2023-04-25T20:21:37.869Z,99.90
2023-04-25T20:24:05.011Z,99.90
2023-04-25T20:26:39.464Z,99.90
2023-04-25T20:29:06.435Z,99.90
2023-04-25T20:34:32.924Z,99.90
2023-04-25T20:37:01.674Z,99.90
2023-04-25T20:39:29.050Z,99.90
2023-04-25T20:44:49.194Z,99.90
2023-04-25T20:47:18.939Z,99.90
2023-04-25T20:49:45.984Z,99.90
2023-04-25T20:55:08.909Z,99.90
2023-04-25T20:57:35.523Z,99.90
2023-04-25T21:00:08.583Z,99.90
2023-04-25T21:02:36.764Z,99.90
2023-04-25T21:05:04.410Z,99.90
2023-04-25T21:07:31.409Z,99.90
2023-04-25T21:09:58.051Z,99.90
2023-04-25T21:12:27.248Z,99.90
2023-04-25T21:14:54.042Z,99.90
2023-04-25T21:17:21.195Z,99.90
2023-04-25T21:19:52.048Z,99.90
2023-04-25T21:22:24.173Z,99.90
2023-04-25T21:27:45.830Z,99.90
2023-04-25T21:30:13.301Z,99.90
2023-04-25T21:35:34.546Z,99.90
2023-04-25T21:38:06.926Z,99.90
2023-04-25T21:40:34.831Z,99.90
2023-04-25T21:43:04.395Z,99.90
2023-04-25T21:45:47.172Z,99.90
2023-04-25T21:48:30.412Z,99.90
2023-04-25T21:50:57.470Z,99.90
2023-04-25T21:53:29.333Z,99.90
2023-04-25T21:55:55.928Z,99.90
2023-04-25T21:58:27.639Z,99.90
2023-04-25T22:03:46.674Z,99.90
2023-04-25T22:06:13.564Z,99.90
2023-04-25T22:08:40.388Z,99.90
2023-04-25T22:11:09.092Z,99.90
2023-04-25T22:13:37.122Z,99.90
2023-04-25T22:16:07.143Z,99.90
2023-04-25T22:18:33.802Z,99.90
2023-04-25T22:21:00.874Z,99.90
2023-04-25T22:23:27.576Z,99.90
2023-04-25T22:25:54.402Z,99.90
2023-04-25T22:28:21.350Z,99.90
2023-04-25T22:30:48.015Z,99.90
2023-04-25T22:36:10.999Z,99.90
2023-04-25T22:38:39.124Z,99.90
2023-04-25T22:41:05.808Z,1.00
2023-04-25T22:43:45.377Z,1.00
2023-04-25T22:46:19.154Z,99.90
2023-04-25T22:51:38.711Z,1.00
2023-04-25T23:02:39.788Z,1.00
2023-04-25T23:07:59.089Z,1.00
2023-04-25T23:10:27.911Z,1.00
2023-04-25T23:12:57.286Z,99.90
2023-04-25T23:15:28.752Z,99.90
2023-04-25T23:17:55.567Z,1.00
2023-04-25T23:20:23.482Z,96.10
2023-04-25T23:22:50.677Z,99.90
2023-04-25T23:25:18.646Z,99.90
2023-04-25T23:27:48.558Z,99.90
2023-04-25T23:30:20.966Z,1.00
2023-04-25T23:32:52.047Z,77.70
2023-04-25T23:35:19.951Z,99.90
2023-04-25T23:37:48.970Z,99.90
2023-04-25T23:43:08.315Z,1.00
2023-04-25T23:45:39.838Z,1.00
2023-04-25T23:48:08.929Z,1.00
2023-04-25T23:50:36.064Z,1.00
2023-04-25T23:53:03.990Z,1.00
2023-04-25T23:55:31.436Z,1.00
2023-04-25T23:57:58.280Z,1.00
